createdAt,value
2022-12-31T00:01:19.916Z,1.45
2022-12-31T00:03:46.653Z,2.78
2022-12-31T00:06:34.377Z,2.53
2022-12-31T00:09:04.925Z,2.83
2022-12-31T00:11:32.190Z,2.05
2022-12-31T00:13:59.112Z,1.42
2022-12-31T00:16:30.372Z,2.08
2022-12-31T00:19:01.634Z,2.33
2022-12-31T00:21:30.069Z,2.75
2022-12-31T00:23:57.157Z,3.00
2022-12-31T00:26:28.024Z,2.97
2022-12-31T00:28:56.509Z,3.08
2022-12-31T00:31:28.991Z,4.53
2022-12-31T00:33:56.472Z,4.30
2022-12-31T00:36:26.485Z,1.60
2022-12-31T00:38:54.586Z,2.17
2022-12-31T00:41:22.804Z,3.70
2022-12-31T00:43:50.179Z,1.80
2022-12-31T00:46:17.305Z,2.00
2022-12-31T00:48:44.366Z,1.85
2022-12-31T00:51:14.076Z,2.45
2022-12-31T00:53:40.781Z,2.55
2022-12-31T00:56:13.954Z,2.08
2022-12-31T00:58:41.479Z,5.93
2022-12-31T01:01:21.749Z,2.88
2022-12-31T01:03:51.169Z,4.90
2022-12-31T01:06:18.200Z,4.10
2022-12-31T01:08:45.118Z,3.63
2022-12-31T01:11:28.966Z,5.00
2022-12-31T01:14:01.450Z,4.22
2022-12-31T01:16:33.967Z,3.40
2022-12-31T01:19:02.800Z,4.95
2022-12-31T01:21:31.429Z,3.20
2022-12-31T01:23:59.461Z,2.33
2022-12-31T01:26:27.090Z,2.90
2022-12-31T01:28:53.817Z,9.35
2022-12-31T01:31:22.238Z,3.78
2022-12-31T01:33:49.403Z,4.55
2022-12-31T01:36:26.011Z,4.10
2022-12-31T01:38:54.988Z,2.40
2022-12-31T01:41:24.840Z,4.55
2022-12-31T01:43:59.077Z,3.45
2022-12-31T01:46:34.545Z,4.57
2022-12-31T01:49:10.321Z,5.88
2022-12-31T01:51:37.839Z,5.15
2022-12-31T01:54:08.774Z,5.40
2022-12-31T01:56:37.185Z,3.92
2022-12-31T01:59:09.294Z,2.22
2022-12-31T02:01:38.469Z,3.83
2022-12-31T02:04:10.462Z,5.70
2022-12-31T02:06:42.896Z,7.50
2022-12-31T02:09:10.633Z,1.85
2022-12-31T02:11:38.141Z,1.80
2022-12-31T02:14:13.625Z,3.30
2022-12-31T02:17:00.666Z,3.22
2022-12-31T02:19:32.857Z,4.47
2022-12-31T02:22:14.429Z,3.33
2022-12-31T02:25:13.920Z,4.85
2022-12-31T02:28:10.162Z,2.63
2022-12-31T02:30:40.381Z,3.10
2022-12-31T02:33:12.653Z,2.50
2022-12-31T02:35:48.910Z,3.83
2022-12-31T02:38:26.736Z,4.43
2022-12-31T02:40:56.975Z,3.35
2022-12-31T02:43:24.725Z,1.97
2022-12-31T02:46:08.591Z,4.72
2022-12-31T02:49:03.845Z,2.53
2022-12-31T02:51:40.876Z,2.65
2022-12-31T02:54:28.384Z,2.35
2022-12-31T02:57:05.834Z,3.17
2022-12-31T03:00:18.968Z,1.98
2022-12-31T03:02:48.272Z,2.88
2022-12-31T03:05:17.778Z,3.42
2022-12-31T03:07:45.301Z,2.03
2022-12-31T03:10:12.357Z,3.15
2022-12-31T03:12:48.189Z,2.15
2022-12-31T03:15:27.290Z,2.95
2022-12-31T03:17:58.492Z,4.03
2022-12-31T03:20:48.924Z,1.48
2022-12-31T03:23:21.660Z,4.63
2022-12-31T03:25:48.971Z,1.75
2022-12-31T03:28:19.067Z,2.80
2022-12-31T03:30:51.649Z,3.28
2022-12-31T03:33:18.860Z,2.85
2022-12-31T03:35:47.572Z,2.80
2022-12-31T03:38:15.304Z,2.45
2022-12-31T03:40:44.979Z,3.72
2022-12-31T03:43:12.161Z,3.60
2022-12-31T03:45:39.244Z,2.75
2022-12-31T03:48:08.057Z,1.63
2022-12-31T03:50:35.171Z,7.30
2022-12-31T03:53:02.109Z,4.30
2022-12-31T03:55:28.831Z,2.67
2022-12-31T03:57:55.590Z,2.08
2022-12-31T04:00:22.779Z,3.17
2022-12-31T04:02:50.628Z,1.48
2022-12-31T04:05:18.240Z,2.70
2022-12-31T04:07:45.260Z,4.82
2022-12-31T04:10:13.938Z,1.73
2022-12-31T04:12:40.796Z,2.38
2022-12-31T04:15:08.982Z,1.75
2022-12-31T04:17:35.644Z,2.75
2022-12-31T04:20:03.084Z,6.30
2022-12-31T04:22:30.517Z,1.45
2022-12-31T04:24:57.155Z,2.40
2022-12-31T04:27:23.800Z,2.05
2022-12-31T04:29:50.441Z,1.27
2022-12-31T04:32:17.149Z,4.18
2022-12-31T04:34:43.794Z,1.92
2022-12-31T04:37:10.474Z,2.58
2022-12-31T04:39:37.148Z,5.72
2022-12-31T04:42:03.831Z,1.75
2022-12-31T04:44:31.659Z,3.58
2022-12-31T04:46:58.380Z,3.13
2022-12-31T04:49:25.035Z,1.20
2022-12-31T04:51:51.697Z,0.65
2022-12-31T04:54:18.321Z,1.98
2022-12-31T04:56:44.973Z,1.65
2022-12-31T04:59:11.919Z,2.38
2022-12-31T05:01:39.442Z,1.13
2022-12-31T05:04:06.386Z,3.75
2022-12-31T05:06:33.194Z,0.98
2022-12-31T05:08:59.897Z,1.58
2022-12-31T05:11:26.564Z,3.58
2022-12-31T05:13:53.254Z,1.48
2022-12-31T05:16:20.184Z,1.02
2022-12-31T05:18:47.019Z,4.40
2022-12-31T05:21:20.287Z,1.45
2022-12-31T05:23:47.745Z,1.40
2022-12-31T05:26:14.763Z,1.38
2022-12-31T05:28:41.490Z,1.42
2022-12-31T05:31:08.378Z,1.48
2022-12-31T05:33:35.047Z,1.60
2022-12-31T05:36:01.712Z,1.50
2022-12-31T05:38:28.475Z,1.60
2022-12-31T05:41:04.087Z,1.60
2022-12-31T05:43:31.355Z,1.58
2022-12-31T05:46:01.879Z,1.48
2022-12-31T05:50:55.518Z,1.42
2022-12-31T05:53:22.315Z,1.75
2022-12-31T05:55:49.249Z,1.75
2022-12-31T05:58:16.349Z,3.33
2022-12-31T06:00:43.335Z,1.40
2022-12-31T06:03:10.168Z,3.00
2022-12-31T06:05:40.874Z,4.20
2022-12-31T06:08:07.545Z,1.35
2022-12-31T06:10:34.210Z,1.33
2022-12-31T06:13:00.925Z,1.02
2022-12-31T06:15:27.562Z,1.27
2022-12-31T06:17:54.228Z,1.50
2022-12-31T06:20:20.864Z,2.90
2022-12-31T06:22:47.494Z,1.00
2022-12-31T06:25:14.388Z,1.02
2022-12-31T06:27:42.057Z,0.95
2022-12-31T06:30:09.569Z,2.00
2022-12-31T06:32:36.246Z,0.77
2022-12-31T06:35:03.074Z,0.60
2022-12-31T06:37:29.740Z,0.70
2022-12-31T06:39:56.397Z,1.13
2022-12-31T06:42:28.426Z,1.05
2022-12-31T06:44:55.061Z,1.20
2022-12-31T06:47:22.194Z,1.60
2022-12-31T06:49:48.841Z,1.52
2022-12-31T06:52:15.589Z,2.08
2022-12-31T06:54:42.537Z,1.88
2022-12-31T06:57:09.915Z,2.30
2022-12-31T06:59:37.641Z,2.08
2022-12-31T07:02:32.560Z,2.05
2022-12-31T07:05:26.803Z,2.00
2022-12-31T07:08:11.580Z,1.70
2022-12-31T07:10:59.629Z,1.52
2022-12-31T07:13:37.920Z,1.33
2022-12-31T07:16:16.607Z,1.35
2022-12-31T07:18:54.878Z,1.27
2022-12-31T07:21:44.357Z,4.50
2022-12-31T07:24:11.873Z,0.82
2022-12-31T07:26:57.806Z,0.60
2022-12-31T07:29:42.428Z,0.80
2022-12-31T07:32:29.392Z,2.50
2022-12-31T07:35:11.371Z,0.30
2022-12-31T07:37:46.325Z,0.30
2022-12-31T07:40:18.891Z,1.88
2022-12-31T07:43:09.291Z,0.32
2022-12-31T07:45:58.954Z,0.55
2022-12-31T07:48:27.925Z,0.20
2022-12-31T07:50:56.722Z,0.85
2022-12-31T07:53:24.673Z,0.50
2022-12-31T07:55:59.972Z,0.38
2022-12-31T07:58:54.350Z,0.30
2022-12-31T08:01:35.835Z,0.60
2022-12-31T08:04:28.427Z,0.30
2022-12-31T08:07:16.675Z,1.50
2022-12-31T08:09:59.852Z,0.77
2022-12-31T08:12:31.122Z,0.45
2022-12-31T08:14:57.986Z,0.45
2022-12-31T08:17:24.793Z,0.45
2022-12-31T08:19:51.801Z,0.50
2022-12-31T08:22:43.234Z,1.92
2022-12-31T08:25:47.622Z,2.28
2022-12-31T08:28:50.519Z,0.60
2022-12-31T08:31:26.690Z,2.35
2022-12-31T08:34:28.568Z,1.38
2022-12-31T08:37:14.557Z,0.95
2022-12-31T08:39:47.018Z,1.35
2022-12-31T08:42:25.660Z,1.90
2022-12-31T08:45:17.330Z,1.75
2022-12-31T08:47:59.645Z,0.57
2022-12-31T08:50:27.462Z,0.88
2022-12-31T08:52:54.575Z,2.88
2022-12-31T08:55:21.541Z,0.55
2022-12-31T08:58:19.686Z,2.25
2022-12-31T09:00:49.965Z,0.60
2022-12-31T09:03:39.591Z,0.60
2022-12-31T09:06:27.466Z,2.63
2022-12-31T09:09:20.049Z,1.85
2022-12-31T09:12:11.671Z,2.45
2022-12-31T09:14:47.068Z,0.75
2022-12-31T09:17:28.565Z,0.88
2022-12-31T09:19:55.626Z,1.20
2022-12-31T09:22:22.777Z,1.23
2022-12-31T09:24:49.681Z,2.88
2022-12-31T09:27:45.379Z,2.70
2022-12-31T09:30:13.890Z,0.55
2022-12-31T09:33:07.546Z,2.38
2022-12-31T09:36:08.068Z,3.38
2022-12-31T09:38:52.419Z,1.67
2022-12-31T09:41:40.161Z,4.90
2022-12-31T09:44:45.984Z,1.63
2022-12-31T09:47:34.297Z,4.20
2022-12-31T09:50:00.903Z,0.77
2022-12-31T09:52:47.390Z,2.50
2022-12-31T09:55:35.746Z,2.67
2022-12-31T09:58:12.139Z,2.08
2022-12-31T10:00:44.092Z,2.53
2022-12-31T10:03:35.284Z,5.85
2022-12-31T10:06:22.029Z,1.90
2022-12-31T10:09:14.699Z,2.80
2022-12-31T10:12:09.654Z,2.53
2022-12-31T10:15:13.860Z,2.00
2022-12-31T10:18:10.896Z,0.93
2022-12-31T10:21:02.393Z,1.10
2022-12-31T10:23:53.618Z,2.10
2022-12-31T10:26:36.895Z,1.90
2022-12-31T10:29:31.422Z,2.75
2022-12-31T10:32:22.850Z,3.55
2022-12-31T10:35:33.766Z,5.75
2022-12-31T10:38:09.758Z,2.88
2022-12-31T10:41:10.378Z,4.35
2022-12-31T10:46:50.374Z,1.63
2022-12-31T10:49:38.084Z,3.60
2022-12-31T10:52:41.519Z,2.58
2022-12-31T10:55:38.106Z,2.10
2022-12-31T10:58:29.109Z,2.08
2022-12-31T11:01:18.786Z,2.33
2022-12-31T11:04:06.510Z,3.65
2022-12-31T11:06:42.276Z,3.38
2022-12-31T11:09:41.901Z,1.90
2022-12-31T11:12:08.536Z,4.32
2022-12-31T11:14:54.470Z,9.48
2022-12-31T11:17:46.684Z,3.83
2022-12-31T11:20:43.790Z,0.38
2022-12-31T11:23:40.260Z,2.83
2022-12-31T11:26:31.691Z,5.13
2022-12-31T11:29:19.213Z,5.68
2022-12-31T11:32:01.010Z,4.90
2022-12-31T11:34:55.141Z,3.25
2022-12-31T11:37:40.669Z,1.40
2022-12-31T11:40:53.965Z,1.58
2022-12-31T11:43:37.222Z,3.53
2022-12-31T11:46:16.288Z,1.08
2022-12-31T11:48:42.918Z,2.42
2022-12-31T11:51:12.531Z,4.30
2022-12-31T11:53:39.199Z,2.78
2022-12-31T11:56:20.039Z,2.05
2022-12-31T11:58:50.977Z,9.10
2022-12-31T12:01:32.180Z,3.33
2022-12-31T12:03:59.367Z,6.18
2022-12-31T12:06:30.046Z,6.20
2022-12-31T12:09:01.556Z,2.78
2022-12-31T12:11:32.052Z,5.60
2022-12-31T12:16:27.202Z,3.25
2022-12-31T12:19:06.600Z,6.95
2022-12-31T12:21:33.844Z,5.43
2022-12-31T12:24:03.939Z,4.70
2022-12-31T12:26:36.980Z,7.88
2022-12-31T12:29:12.540Z,3.70
2022-12-31T12:31:39.535Z,6.47
2022-12-31T12:34:21.034Z,3.30
2022-12-31T12:36:48.360Z,6.35
2022-12-31T12:39:21.382Z,5.95
2022-12-31T12:41:48.004Z,3.28
2022-12-31T12:44:16.682Z,3.90
2022-12-31T12:46:52.405Z,5.53
2022-12-31T12:49:40.674Z,3.65
2022-12-31T12:52:14.164Z,4.70
2022-12-31T12:55:03.324Z,4.15
2022-12-31T12:57:35.171Z,3.50
2022-12-31T13:00:09.462Z,5.85
2022-12-31T13:03:24.757Z,4.38
2022-12-31T13:06:12.822Z,6.40
2022-12-31T13:08:42.603Z,5.00
2022-12-31T13:11:33.463Z,4.75
2022-12-31T13:14:23.927Z,6.00
2022-12-31T13:16:56.738Z,2.10
2022-12-31T13:19:55.240Z,3.15
2022-12-31T13:22:45.005Z,4.60
2022-12-31T13:25:46.268Z,5.68
2022-12-31T13:28:16.285Z,7.53
2022-12-31T13:30:47.184Z,5.63
2022-12-31T13:33:22.193Z,5.22
2022-12-31T13:35:59.826Z,5.50
2022-12-31T13:38:30.404Z,3.15
2022-12-31T13:41:17.648Z,5.47
2022-12-31T13:43:56.621Z,13.93
2022-12-31T13:46:26.067Z,5.22
2022-12-31T13:48:59.568Z,4.90
2022-12-31T13:51:45.567Z,8.63
2022-12-31T13:54:34.578Z,7.60
2022-12-31T13:57:22.980Z,5.18
2022-12-31T13:59:57.115Z,3.00
2022-12-31T14:02:47.851Z,2.75
2022-12-31T14:05:28.854Z,2.60
2022-12-31T14:07:59.536Z,3.20
2022-12-31T14:11:03.886Z,5.88
2022-12-31T14:14:12.211Z,4.85
2022-12-31T14:16:50.601Z,4.05
2022-12-31T14:19:40.902Z,3.65
2022-12-31T14:22:33.477Z,4.00
2022-12-31T14:25:02.230Z,3.35
2022-12-31T14:27:34.755Z,5.47
2022-12-31T14:30:05.393Z,4.32
2022-12-31T14:32:43.935Z,4.75
2022-12-31T14:35:51.945Z,3.47
2022-12-31T14:38:29.461Z,2.95
2022-12-31T14:41:24.491Z,4.60
2022-12-31T14:44:19.738Z,4.20
2022-12-31T14:47:23.601Z,4.50
2022-12-31T14:50:18.343Z,4.75
2022-12-31T14:53:00.313Z,6.50
2022-12-31T14:55:34.486Z,1.85
2022-12-31T14:58:27.774Z,4.00
2022-12-31T15:01:08.619Z,4.85
2022-12-31T15:06:38.076Z,6.30
2022-12-31T15:09:39.999Z,5.95
2022-12-31T15:12:41.963Z,4.40
2022-12-31T15:15:11.816Z,7.28
2022-12-31T15:17:50.702Z,8.68
2022-12-31T15:20:27.140Z,9.40
2022-12-31T15:22:54.692Z,8.20
2022-12-31T15:25:46.391Z,7.93
2022-12-31T15:28:29.422Z,8.15
2022-12-31T15:31:07.540Z,11.70
2022-12-31T15:33:53.709Z,10.13
2022-12-31T15:36:24.522Z,15.05
2022-12-31T15:39:03.748Z,12.77
2022-12-31T15:41:37.526Z,11.90
2022-12-31T15:44:29.906Z,14.70
2022-12-31T15:47:10.732Z,10.40
2022-12-31T15:49:42.624Z,14.05
2022-12-31T15:52:22.317Z,10.85
2022-12-31T15:54:54.710Z,8.95
2022-12-31T15:57:39.302Z,7.78
2022-12-31T16:00:28.550Z,8.27
2022-12-31T16:02:56.037Z,9.93
2022-12-31T16:05:27.760Z,12.52
2022-12-31T16:07:56.277Z,11.45
2022-12-31T16:10:30.196Z,11.93
2022-12-31T16:12:58.367Z,13.48
2022-12-31T16:15:29.159Z,12.48
2022-12-31T16:18:09.867Z,16.80
2022-12-31T16:20:42.536Z,11.93
2022-12-31T16:23:42.062Z,10.48
2022-12-31T16:26:10.876Z,11.73
2022-12-31T16:28:37.933Z,8.32
2022-12-31T16:31:13.856Z,6.70
2022-12-31T16:33:40.636Z,10.60
2022-12-31T16:36:20.846Z,9.20
2022-12-31T16:38:48.196Z,11.75
2022-12-31T16:41:22.102Z,9.82
2022-12-31T16:43:50.210Z,9.05
2022-12-31T16:46:20.193Z,10.82
2022-12-31T16:48:49.745Z,9.30
2022-12-31T16:51:19.938Z,9.50
2022-12-31T16:53:47.959Z,10.63
2022-12-31T16:56:24.085Z,10.57
2022-12-31T16:58:57.241Z,11.88
2022-12-31T17:01:27.453Z,16.95
2022-12-31T17:03:58.799Z,12.77
2022-12-31T17:06:28.384Z,14.32
2022-12-31T17:09:00.839Z,12.63
2022-12-31T17:11:42.325Z,12.13
2022-12-31T17:14:08.899Z,11.15
2022-12-31T17:16:38.412Z,13.65
2022-12-31T17:19:05.750Z,6.33
2022-12-31T17:21:33.295Z,14.20
2022-12-31T17:24:13.546Z,12.02
2022-12-31T17:26:40.468Z,10.68
2022-12-31T17:29:08.017Z,12.48
2022-12-31T17:31:43.131Z,12.35
2022-12-31T17:34:12.638Z,10.05
2022-12-31T17:36:41.774Z,12.82
2022-12-31T17:39:22.473Z,12.65
2022-12-31T17:41:52.186Z,13.93
2022-12-31T17:44:23.113Z,14.00
2022-12-31T17:46:50.514Z,15.07
2022-12-31T17:49:17.727Z,15.10
2022-12-31T17:51:47.676Z,11.50
2022-12-31T17:54:15.707Z,9.52
2022-12-31T17:56:43.518Z,9.18
2022-12-31T17:59:36.748Z,14.45
2022-12-31T18:02:05.093Z,17.63
2022-12-31T18:04:31.778Z,7.55
2022-12-31T18:06:58.418Z,9.15
2022-12-31T18:09:25.046Z,9.27
2022-12-31T18:11:55.463Z,10.88
2022-12-31T18:14:23.522Z,10.30
2022-12-31T18:16:50.184Z,13.25
2022-12-31T18:19:45.943Z,11.93
2022-12-31T18:22:03.635Z,10.68
2022-12-31T18:24:30.250Z,10.98
2022-12-31T18:26:56.870Z,7.68
2022-12-31T18:29:23.917Z,10.75
2022-12-31T18:31:51.069Z,10.25
2022-12-31T18:34:18.565Z,13.70
2022-12-31T18:36:46.178Z,8.57
2022-12-31T18:39:12.892Z,16.05
2022-12-31T18:41:45.490Z,11.45
2022-12-31T18:44:15.051Z,11.45
2022-12-31T18:46:42.779Z,11.10
2022-12-31T18:49:10.530Z,8.18
2022-12-31T18:51:37.238Z,11.27
2022-12-31T18:54:05.032Z,10.43
2022-12-31T18:56:32.055Z,8.23
2022-12-31T18:58:59.720Z,12.82
2022-12-31T19:01:35.567Z,11.15
2022-12-31T19:04:10.535Z,10.18
2022-12-31T19:06:37.184Z,19.40
2022-12-31T19:09:09.226Z,12.48
2022-12-31T19:11:45.212Z,9.38
2022-12-31T19:14:24.229Z,6.35
2022-12-31T19:16:52.319Z,11.90
2022-12-31T19:19:19.088Z,14.45
2022-12-31T19:21:46.356Z,12.55
2022-12-31T19:24:19.833Z,15.85
2022-12-31T19:26:46.510Z,13.05
2022-12-31T19:29:17.905Z,12.65
2022-12-31T19:31:44.863Z,11.40
2022-12-31T19:34:11.877Z,8.85
2022-12-31T19:36:43.893Z,9.20
2022-12-31T19:39:16.578Z,11.27
2022-12-31T19:41:43.814Z,9.82
2022-12-31T19:44:18.314Z,11.27
2022-12-31T19:46:45.825Z,10.23
2022-12-31T19:49:13.945Z,11.07
2022-12-31T19:51:41.226Z,9.27
2022-12-31T19:54:08.410Z,17.08
2022-12-31T19:56:35.124Z,9.88
2022-12-31T19:59:06.273Z,13.52
2022-12-31T20:01:33.250Z,11.18
2022-12-31T20:04:00.145Z,16.35
2022-12-31T20:06:26.932Z,3.65
2022-12-31T20:08:53.645Z,10.90
2022-12-31T20:11:22.658Z,13.82
2022-12-31T20:13:50.311Z,14.73
2022-12-31T20:16:19.214Z,12.32
2022-12-31T20:18:47.293Z,7.95
2022-12-31T20:21:20.637Z,10.90
2022-12-31T20:23:48.969Z,10.48
2022-12-31T20:26:15.926Z,10.68
2022-12-31T20:28:42.777Z,12.23
2022-12-31T20:31:12.601Z,19.90
2022-12-31T20:33:39.418Z,7.38
2022-12-31T20:36:07.702Z,14.65
2022-12-31T20:38:34.767Z,17.90
2022-12-31T20:41:11.622Z,17.60
2022-12-31T20:43:38.920Z,9.70
2022-12-31T20:46:14.076Z,7.57
2022-12-31T20:48:43.678Z,19.98
2022-12-31T20:51:10.613Z,13.93
2022-12-31T20:53:37.514Z,6.60
2022-12-31T20:56:09.398Z,15.38
2022-12-31T20:58:36.353Z,12.23
2022-12-31T21:01:06.689Z,10.95
2022-12-31T21:06:22.254Z,15.20
2022-12-31T21:08:49.006Z,20.73
2022-12-31T21:11:34.448Z,9.90
2022-12-31T21:14:01.686Z,14.85
2022-12-31T21:16:28.487Z,18.20
2022-12-31T21:18:55.694Z,11.65
2022-12-31T21:21:22.399Z,15.00
2022-12-31T21:23:49.173Z,15.73
2022-12-31T21:26:16.339Z,15.57
2022-12-31T21:28:43.008Z,9.48
2022-12-31T21:31:12.959Z,10.00
2022-12-31T21:33:39.817Z,16.70
2022-12-31T21:36:06.692Z,13.52
2022-12-31T21:38:36.510Z,8.70
2022-12-31T21:41:05.044Z,17.70
2022-12-31T21:43:31.729Z,9.25
2022-12-31T21:46:03.642Z,14.40
2022-12-31T21:48:30.522Z,18.95
2022-12-31T21:51:15.176Z,12.50
2022-12-31T21:53:41.820Z,9.68
2022-12-31T21:56:09.501Z,13.23
2022-12-31T21:58:38.841Z,19.90
2022-12-31T22:01:25.066Z,10.93
2022-12-31T22:03:52.375Z,16.60
2022-12-31T22:06:22.125Z,16.73
2022-12-31T22:08:54.333Z,13.25
2022-12-31T22:11:23.395Z,11.30
2022-12-31T22:13:50.644Z,13.20
2022-12-31T22:16:20.185Z,16.55
2022-12-31T22:18:47.742Z,16.70
2022-12-31T22:21:22.593Z,13.02
2022-12-31T22:23:52.433Z,11.48
2022-12-31T22:26:21.720Z,11.38
2022-12-31T22:28:48.443Z,11.57
2022-12-31T22:31:18.070Z,11.48
2022-12-31T22:33:45.111Z,10.70
2022-12-31T22:36:15.111Z,14.55
2022-12-31T22:38:42.273Z,7.65
2022-12-31T22:41:10.684Z,12.52
2022-12-31T22:43:41.352Z,11.05
2022-12-31T22:46:13.909Z,13.27
2022-12-31T22:48:41.584Z,12.20
2022-12-31T22:51:09.293Z,12.20
2022-12-31T22:53:36.247Z,6.68
2022-12-31T22:56:02.942Z,12.88
2022-12-31T22:58:29.664Z,12.38
2022-12-31T23:00:56.286Z,17.88
2022-12-31T23:03:22.999Z,11.48
2022-12-31T23:05:52.402Z,10.48
2022-12-31T23:08:23.269Z,30.02
2022-12-31T23:11:03.712Z,10.70
2022-12-31T23:13:54.684Z,12.98
2022-12-31T23:16:41.256Z,14.35
2022-12-31T23:19:26.340Z,8.30
2022-12-31T23:22:12.258Z,20.67
2022-12-31T23:24:39.520Z,21.42
2022-12-31T23:27:06.996Z,21.27
2022-12-31T23:29:34.076Z,22.98
2022-12-31T23:32:00.893Z,28.65
2022-12-31T23:34:27.572Z,36.92
2022-12-31T23:36:54.580Z,33.90
2022-12-31T23:39:21.478Z,31.63
2022-12-31T23:41:48.254Z,28.13
2022-12-31T23:44:15.023Z,27.40
2022-12-31T23:46:42.372Z,24.60
2022-12-31T23:49:09.216Z,26.85
2022-12-31T23:51:36.661Z,25.30
2022-12-31T23:54:04.400Z,19.60
2022-12-31T23:56:31.081Z,24.60
2022-12-31T23:58:59.335Z,19.35
